sensor_id;sensor_type;location;lat;lon;timestamp;pressure;altitude;pressure_sealevel;temperature;humidity
54978;BME280;40873;47.522;19.106;2022-09-20T00:00:49;100341.19;;;10.15;100.00
54978;BME280;40873;47.522;19.106;2022-09-20T00:03:26;100335.25;;;10.11;100.00
54978;BME280;40873;47.522;19.106;2022-09-20T00:05:53;100333.81;;;10.06;100.00
54978;BME280;40873;47.522;19.106;2022-09-20T00:08:20;100340.22;;;10.02;100.00
54978;BME280;40873;47.522;19.106;2022-09-20T00:10:46;100330.59;;;10.01;100.00
54978;BME280;40873;47.522;19.106;2022-09-20T00:13:14;100325.78;;;9.93;100.00
54978;BME280;40873;47.522;19.106;2022-09-20T00:15:42;100318.91;;;9.91;100.00
54978;BME280;40873;47.522;19.106;2022-09-20T00:18:10;100323.81;;;9.97;100.00
54978;BME280;40873;47.522;19.106;2022-09-20T00:20:44;100320.75;;;10.04;100.00
54978;BME280;40873;47.522;19.106;2022-09-20T00:23:11;100320.91;;;10.01;100.00
54978;BME280;40873;47.522;19.106;2022-09-20T00:25:38;100321.94;;;9.99;100.00
54978;BME280;40873;47.522;19.106;2022-09-20T00:28:06;100327.22;;;9.99;100.00
54978;BME280;40873;47.522;19.106;2022-09-20T00:30:33;100330.03;;;9.96;100.00
54978;BME280;40873;47.522;19.106;2022-09-20T00:33:00;100328.25;;;9.96;100.00
54978;BME280;40873;47.522;19.106;2022-09-20T00:35:28;100330.28;;;9.91;100.00
54978;BME280;40873;47.522;19.106;2022-09-20T00:37:56;100321.00;;;10.00;100.00
54978;BME280;40873;47.522;19.106;2022-09-20T00:40:23;100329.34;;;9.92;100.00
54978;BME280;40873;47.522;19.106;2022-09-20T00:42:52;100324.47;;;10.00;100.00
54978;BME280;40873;47.522;19.106;2022-09-20T00:45:26;100320.00;;;9.86;100.00
54978;BME280;40873;47.522;19.106;2022-09-20T00:50:47;100324.28;;;9.89;100.00
54978;BME280;40873;47.522;19.106;2022-09-20T00:53:28;100316.91;;;9.94;100.00
54978;BME280;40873;47.522;19.106;2022-09-20T00:56:04;100321.34;;;9.94;100.00
54978;BME280;40873;47.522;19.106;2022-09-20T00:58:36;100333.13;;;9.88;100.00
54978;BME280;40873;47.522;19.106;2022-09-20T01:01:03;100327.16;;;9.84;100.00
54978;BME280;40873;47.522;19.106;2022-09-20T01:03:33;100328.84;;;9.85;100.00
54978;BME280;40873;47.522;19.106;2022-09-20T01:06:04;100326.25;;;9.70;100.00
54978;BME280;40873;47.522;19.106;2022-09-20T01:08:33;100330.09;;;9.64;100.00
54978;BME280;40873;47.522;19.106;2022-09-20T01:11:01;100336.38;;;9.61;100.00
54978;BME280;40873;47.522;19.106;2022-09-20T01:13:28;100328.34;;;9.79;100.00
54978;BME280;40873;47.522;19.106;2022-09-20T01:15:56;100327.53;;;9.63;100.00
54978;BME280;40873;47.522;19.106;2022-09-20T01:18:27;100317.34;;;9.56;100.00
54978;BME280;40873;47.522;19.106;2022-09-20T01:20:55;100325.00;;;9.61;100.00
54978;BME280;40873;47.522;19.106;2022-09-20T01:28:48;100303.25;;;9.57;100.00
54978;BME280;40873;47.522;19.106;2022-09-20T01:31:25;100301.44;;;9.58;100.00
54978;BME280;40873;47.522;19.106;2022-09-20T01:34:02;100309.78;;;9.50;100.00
54978;BME280;40873;47.522;19.106;2022-09-20T01:36:36;100294.59;;;9.55;100.00
54978;BME280;40873;47.522;19.106;2022-09-20T01:41:59;100315.47;;;9.58;100.00
54978;BME280;40873;47.522;19.106;2022-09-20T01:44:59;100317.16;;;9.59;100.00
54978;BME280;40873;47.522;19.106;2022-09-20T01:50:14;100320.59;;;9.61;100.00
54978;BME280;40873;47.522;19.106;2022-09-20T01:58:31;100318.03;;;9.60;100.00
54978;BME280;40873;47.522;19.106;2022-09-20T02:12:43;100308.78;;;9.53;100.00
54978;BME280;40873;47.522;19.106;2022-09-20T02:26:23;100310.88;;;9.62;100.00
54978;BME280;40873;47.522;19.106;2022-09-20T02:29:19;100312.44;;;9.50;100.00
54978;BME280;40873;47.522;19.106;2022-09-20T02:31:59;100320.66;;;9.44;100.00
54978;BME280;40873;47.522;19.106;2022-09-20T02:42:48;100315.94;;;9.35;100.00
54978;BME280;40873;47.522;19.106;2022-09-20T02:48:02;100316.53;;;9.40;100.00
54978;BME280;40873;47.522;19.106;2022-09-20T02:50:39;100316.25;;;9.45;100.00
54978;BME280;40873;47.522;19.106;2022-09-20T02:59:26;100328.31;;;9.49;100.00
54978;BME280;40873;47.522;19.106;2022-09-20T03:05:23;100319.22;;;9.39;100.00
54978;BME280;40873;47.522;19.106;2022-09-20T03:27:37;100326.47;;;9.35;100.00
54978;BME280;40873;47.522;19.106;2022-09-20T03:30:40;100326.56;;;9.33;100.00
54978;BME280;40873;47.522;19.106;2022-09-20T04:10:23;100357.94;;;9.05;100.00
54978;BME280;40873;47.522;19.106;2022-09-20T04:21:15;100369.03;;;8.94;100.00
54978;BME280;40873;47.522;19.106;2022-09-20T04:26:26;100380.59;;;8.92;100.00
54978;BME280;40873;47.522;19.106;2022-09-20T04:32:14;100378.81;;;8.92;100.00
54978;BME280;40873;47.522;19.106;2022-09-20T04:37:46;100382.38;;;8.91;100.00
54978;BME280;40873;47.522;19.106;2022-09-20T05:11:52;100383.94;;;9.11;100.00
54978;BME280;40873;47.522;19.106;2022-09-20T05:22:55;100381.56;;;9.22;100.00
54978;BME280;40873;47.522;19.106;2022-09-20T05:31:36;100390.16;;;9.42;100.00
54978;BME280;40873;47.522;19.106;2022-09-20T05:34:14;100395.25;;;9.45;100.00
54978;BME280;40873;47.522;19.106;2022-09-20T05:39:52;100397.31;;;9.55;100.00
54978;BME280;40873;47.522;19.106;2022-09-20T05:42:38;100403.09;;;9.62;100.00
54978;BME280;40873;47.522;19.106;2022-09-20T05:48:12;100409.53;;;9.88;100.00
54978;BME280;40873;47.522;19.106;2022-09-20T06:02:13;100417.56;;;10.01;98.13
54978;BME280;40873;47.522;19.106;2022-09-20T06:08:06;100415.88;;;10.15;96.51
54978;BME280;40873;47.522;19.106;2022-09-20T06:10:30;100417.91;;;10.10;96.70
54978;BME280;40873;47.522;19.106;2022-09-20T06:18:49;100413.13;;;10.33;95.56
54978;BME280;40873;47.522;19.106;2022-09-20T06:21:39;100419.44;;;10.30;95.16
54978;BME280;40873;47.522;19.106;2022-09-20T06:24:35;100415.41;;;10.39;95.37
54978;BME280;40873;47.522;19.106;2022-09-20T06:27:14;100406.25;;;10.30;95.77
54978;BME280;40873;47.522;19.106;2022-09-20T06:29:50;100413.72;;;10.38;95.35
54978;BME280;40873;47.522;19.106;2022-09-20T06:32:18;100414.22;;;10.45;94.93
54978;BME280;40873;47.522;19.106;2022-09-20T06:34:45;100422.91;;;10.61;94.96
54978;BME280;40873;47.522;19.106;2022-09-20T06:37:38;100422.34;;;10.70;94.80
54978;BME280;40873;47.522;19.106;2022-09-20T06:40:38;100420.41;;;10.88;94.22
54978;BME280;40873;47.522;19.106;2022-09-20T06:43:45;100425.50;;;10.91;94.57
54978;BME280;40873;47.522;19.106;2022-09-20T06:46:14;100425.91;;;10.99;92.56
54978;BME280;40873;47.522;19.106;2022-09-20T06:48:41;100421.06;;;10.91;92.20
54978;BME280;40873;47.522;19.106;2022-09-20T06:51:08;100422.41;;;11.13;92.51
54978;BME280;40873;47.522;19.106;2022-09-20T06:53:38;100432.50;;;11.20;91.49
54978;BME280;40873;47.522;19.106;2022-09-20T06:56:07;100428.81;;;11.23;92.66
54978;BME280;40873;47.522;19.106;2022-09-20T06:58:35;100421.16;;;11.33;90.77
54978;BME280;40873;47.522;19.106;2022-09-20T07:01:01;100426.19;;;11.23;90.59
54978;BME280;40873;47.522;19.106;2022-09-20T07:03:28;100424.22;;;11.27;90.52
54978;BME280;40873;47.522;19.106;2022-09-20T07:05:57;100430.97;;;11.31;89.79
54978;BME280;40873;47.522;19.106;2022-09-20T07:08:26;100435.88;;;11.51;89.57
54978;BME280;40873;47.522;19.106;2022-09-20T07:10:53;100431.25;;;11.55;89.07
54978;BME280;40873;47.522;19.106;2022-09-20T07:13:20;100441.38;;;11.48;87.85
54978;BME280;40873;47.522;19.106;2022-09-20T07:15:47;100437.06;;;11.60;86.66
54978;BME280;40873;47.522;19.106;2022-09-20T07:18:15;100435.19;;;11.76;86.10
54978;BME280;40873;47.522;19.106;2022-09-20T07:20:42;100439.06;;;11.70;85.96
54978;BME280;40873;47.522;19.106;2022-09-20T07:23:10;100460.38;;;11.82;85.86
54978;BME280;40873;47.522;19.106;2022-09-20T07:25:36;100457.63;;;11.97;85.07
54978;BME280;40873;47.522;19.106;2022-09-20T07:28:04;100462.00;;;11.84;84.70
54978;BME280;40873;47.522;19.106;2022-09-20T07:30:33;100453.09;;;11.99;85.06
54978;BME280;40873;47.522;19.106;2022-09-20T07:33:00;100452.88;;;12.29;83.84
54978;BME280;40873;47.522;19.106;2022-09-20T07:35:28;100446.44;;;12.33;82.82
54978;BME280;40873;47.522;19.106;2022-09-20T07:37:56;100452.28;;;12.51;83.00
54978;BME280;40873;47.522;19.106;2022-09-20T07:40:23;100454.53;;;12.45;82.28
54978;BME280;40873;47.522;19.106;2022-09-20T07:42:55;100449.09;;;12.33;82.10
54978;BME280;40873;47.522;19.106;2022-09-20T07:45:22;100448.72;;;12.65;81.49
54978;BME280;40873;47.522;19.106;2022-09-20T07:47:49;100447.13;;;12.62;79.78
54978;BME280;40873;47.522;19.106;2022-09-20T07:50:16;100461.94;;;12.52;79.31
54978;BME280;40873;47.522;19.106;2022-09-20T07:52:44;100452.31;;;12.64;79.50
54978;BME280;40873;47.522;19.106;2022-09-20T07:55:11;100460.72;;;12.83;79.83
54978;BME280;40873;47.522;19.106;2022-09-20T07:57:38;100460.19;;;12.66;78.54
54978;BME280;40873;47.522;19.106;2022-09-20T08:00:07;100451.22;;;12.94;78.47
54978;BME280;40873;47.522;19.106;2022-09-20T08:02:35;100455.03;;;13.28;77.75
54978;BME280;40873;47.522;19.106;2022-09-20T08:05:02;100461.59;;;13.48;74.51
54978;BME280;40873;47.522;19.106;2022-09-20T08:07:30;100465.00;;;13.50;74.05
54978;BME280;40873;47.522;19.106;2022-09-20T08:09:57;100463.91;;;13.65;74.95
54978;BME280;40873;47.522;19.106;2022-09-20T08:12:24;100461.94;;;13.92;72.60
54978;BME280;40873;47.522;19.106;2022-09-20T08:15:11;100461.13;;;13.79;72.78
54978;BME280;40873;47.522;19.106;2022-09-20T08:17:38;100461.97;;;14.04;72.89
54978;BME280;40873;47.522;19.106;2022-09-20T08:20:06;100470.28;;;14.23;72.78
54978;BME280;40873;47.522;19.106;2022-09-20T08:22:33;100469.91;;;14.40;71.05
54978;BME280;40873;47.522;19.106;2022-09-20T08:25:00;100473.06;;;14.21;70.65
54978;BME280;40873;47.522;19.106;2022-09-20T08:27:27;100474.06;;;14.32;70.74
54978;BME280;40873;47.522;19.106;2022-09-20T08:29:54;100473.84;;;14.35;70.01
54978;BME280;40873;47.522;19.106;2022-09-20T08:32:23;100481.53;;;14.74;68.84
54978;BME280;40873;47.522;19.106;2022-09-20T08:34:49;100481.25;;;14.42;68.17
54978;BME280;40873;47.522;19.106;2022-09-20T08:37:16;100476.16;;;14.39;68.62
54978;BME280;40873;47.522;19.106;2022-09-20T08:39:43;100485.75;;;14.29;68.23
54978;BME280;40873;47.522;19.106;2022-09-20T08:42:32;100483.25;;;14.39;69.46
54978;BME280;40873;47.522;19.106;2022-09-20T08:45:14;100481.16;;;14.68;68.49
54978;BME280;40873;47.522;19.106;2022-09-20T08:48:02;100481.19;;;14.31;69.33
54978;BME280;40873;47.522;19.106;2022-09-20T08:50:31;100475.91;;;13.94;70.92
54978;BME280;40873;47.522;19.106;2022-09-20T08:53:00;100488.47;;;14.16;70.77
54978;BME280;40873;47.522;19.106;2022-09-20T08:55:31;100492.41;;;14.47;66.88
54978;BME280;40873;47.522;19.106;2022-09-20T08:58:02;100487.78;;;14.73;66.99
54978;BME280;40873;47.522;19.106;2022-09-20T09:00:35;100483.63;;;14.93;65.58
54978;BME280;40873;47.522;19.106;2022-09-20T09:03:05;100473.19;;;15.25;65.89
54978;BME280;40873;47.522;19.106;2022-09-20T09:05:35;100479.78;;;14.97;66.78
54978;BME280;40873;47.522;19.106;2022-09-20T09:08:08;100478.19;;;14.95;66.32
54978;BME280;40873;47.522;19.106;2022-09-20T09:10:38;100480.84;;;14.60;66.79
54978;BME280;40873;47.522;19.106;2022-09-20T09:13:17;100474.75;;;14.22;67.41
54978;BME280;40873;47.522;19.106;2022-09-20T09:15:50;100472.38;;;14.07;67.65
54978;BME280;40873;47.522;19.106;2022-09-20T09:18:18;100475.59;;;14.71;67.90
54978;BME280;40873;47.522;19.106;2022-09-20T09:20:45;100469.06;;;14.40;67.56
54978;BME280;40873;47.522;19.106;2022-09-20T09:23:25;100457.53;;;14.52;68.60
54978;BME280;40873;47.522;19.106;2022-09-20T09:25:53;100456.88;;;14.72;67.82
54978;BME280;40873;47.522;19.106;2022-09-20T09:28:24;100459.91;;;14.68;66.38
54978;BME280;40873;47.522;19.106;2022-09-20T09:30:52;100459.34;;;14.27;67.59
54978;BME280;40873;47.522;19.106;2022-09-20T09:33:42;100463.34;;;14.33;68.15
54978;BME280;40873;47.522;19.106;2022-09-20T09:36:15;100460.13;;;14.41;67.79
54978;BME280;40873;47.522;19.106;2022-09-20T09:38:44;100463.81;;;14.51;68.23
54978;BME280;40873;47.522;19.106;2022-09-20T09:41:22;100457.00;;;14.71;68.25
54978;BME280;40873;47.522;19.106;2022-09-20T09:44:17;100446.94;;;15.54;64.90
54978;BME280;40873;47.522;19.106;2022-09-20T09:46:44;100455.78;;;15.32;64.38
54978;BME280;40873;47.522;19.106;2022-09-20T09:54:50;100449.19;;;17.10;58.98
54978;BME280;40873;47.522;19.106;2022-09-20T10:27:59;100444.63;;;15.95;60.15
54978;BME280;40873;47.522;19.106;2022-09-20T10:30:42;100447.97;;;15.65;60.83
54978;BME280;40873;47.522;19.106;2022-09-20T10:33:33;100448.03;;;15.29;61.91
54978;BME280;40873;47.522;19.106;2022-09-20T10:42:17;100440.50;;;16.34;60.27
54978;BME280;40873;47.522;19.106;2022-09-20T10:48:10;100431.53;;;17.09;56.61
54978;BME280;40873;47.522;19.106;2022-09-20T10:51:05;100434.03;;;16.48;57.91
54978;BME280;40873;47.522;19.106;2022-09-20T10:56:42;100425.88;;;16.81;57.27
54978;BME280;40873;47.522;19.106;2022-09-20T11:10:27;100424.66;;;17.87;55.57
54978;BME280;40873;47.522;19.106;2022-09-20T11:16:05;100413.59;;;18.01;54.03
54978;BME280;40873;47.522;19.106;2022-09-20T11:21:30;100416.00;;;18.52;54.40
54978;BME280;40873;47.522;19.106;2022-09-20T11:26:41;100422.50;;;17.00;56.03
54978;BME280;40873;47.522;19.106;2022-09-20T11:31:48;100421.88;;;16.55;58.39
54978;BME280;40873;47.522;19.106;2022-09-20T11:36:59;100427.84;;;15.83;61.37
54978;BME280;40873;47.522;19.106;2022-09-20T11:39:50;100420.75;;;15.16;63.06
54978;BME280;40873;47.522;19.106;2022-09-20T11:42:30;100421.09;;;15.23;63.17
54978;BME280;40873;47.522;19.106;2022-09-20T11:44:58;100420.34;;;15.43;62.63
54978;BME280;40873;47.522;19.106;2022-09-20T11:47:39;100408.34;;;16.26;60.69
54978;BME280;40873;47.522;19.106;2022-09-20T11:56:25;100394.78;;;19.54;51.00
54978;BME280;40873;47.522;19.106;2022-09-20T11:58:57;100388.50;;;19.08;50.45
54978;BME280;40873;47.522;19.106;2022-09-20T12:01:28;100383.16;;;20.09;48.58
54978;BME280;40873;47.522;19.106;2022-09-20T12:04:00;100385.63;;;21.42;45.02
54978;BME280;40873;47.522;19.106;2022-09-20T12:09:39;100373.38;;;22.79;41.53
54978;BME280;40873;47.522;19.106;2022-09-20T12:12:31;100384.34;;;22.21;42.80
54978;BME280;40873;47.522;19.106;2022-09-20T12:15:04;100370.19;;;22.76;42.22
54978;BME280;40873;47.522;19.106;2022-09-20T12:47:05;100375.50;;;23.64;38.50
54978;BME280;40873;47.522;19.106;2022-09-20T12:55:42;100388.28;;;21.07;44.50
54978;BME280;40873;47.522;19.106;2022-09-20T12:58:24;100382.75;;;20.21;45.16
54978;BME280;40873;47.522;19.106;2022-09-20T13:03:34;100377.03;;;17.72;50.44
54978;BME280;40873;47.522;19.106;2022-09-20T13:11:53;100371.16;;;17.38;54.25
54978;BME280;40873;47.522;19.106;2022-09-20T13:14:25;100375.72;;;16.86;55.22
54978;BME280;40873;47.522;19.106;2022-09-20T13:19:40;100377.59;;;16.54;58.30
54978;BME280;40873;47.522;19.106;2022-09-20T13:22:13;100381.53;;;16.70;57.71
54978;BME280;40873;47.522;19.106;2022-09-20T13:24:47;100377.09;;;16.81;58.16
54978;BME280;40873;47.522;19.106;2022-09-20T13:27:21;100377.75;;;17.04;56.07
54978;BME280;40873;47.522;19.106;2022-09-20T13:29:49;100384.25;;;17.41;54.68
54978;BME280;40873;47.522;19.106;2022-09-20T13:32:27;100385.91;;;18.60;52.52
54978;BME280;40873;47.522;19.106;2022-09-20T13:35:05;100381.09;;;18.93;52.06
54978;BME280;40873;47.522;19.106;2022-09-20T13:37:33;100388.34;;;19.10;50.83
54978;BME280;40873;47.522;19.106;2022-09-20T13:40:04;100393.66;;;18.73;51.84
54978;BME280;40873;47.522;19.106;2022-09-20T13:42:32;100377.25;;;20.23;49.11
54978;BME280;40873;47.522;19.106;2022-09-20T13:45:04;100377.69;;;21.32;45.88
54978;BME280;40873;47.522;19.106;2022-09-20T13:47:31;100377.63;;;19.20;50.30
54978;BME280;40873;47.522;19.106;2022-09-20T13:52:55;100385.78;;;17.94;54.63
54978;BME280;40873;47.522;19.106;2022-09-20T13:55:34;100379.19;;;17.88;55.65
54978;BME280;40873;47.522;19.106;2022-09-20T13:58:16;100382.56;;;18.10;54.88
54978;BME280;40873;47.522;19.106;2022-09-20T14:00:58;100387.59;;;18.61;53.01
54978;BME280;40873;47.522;19.106;2022-09-20T14:03:28;100377.13;;;18.97;52.51
54978;BME280;40873;47.522;19.106;2022-09-20T14:05:59;100385.34;;;18.76;52.64
54978;BME280;40873;47.522;19.106;2022-09-20T14:08:48;100386.50;;;18.05;53.50
54978;BME280;40873;47.522;19.106;2022-09-20T14:11:25;100381.44;;;18.31;53.43
54978;BME280;40873;47.522;19.106;2022-09-20T14:13:57;100394.38;;;18.46;52.31
54978;BME280;40873;47.522;19.106;2022-09-20T14:16:36;100394.09;;;18.29;53.01
54978;BME280;40873;47.522;19.106;2022-09-20T14:19:04;100388.69;;;17.71;53.30
54978;BME280;40873;47.522;19.106;2022-09-20T14:21:36;100388.16;;;17.77;53.67
54978;BME280;40873;47.522;19.106;2022-09-20T14:24:12;100389.13;;;17.36;52.92
54978;BME280;40873;47.522;19.106;2022-09-20T14:27:20;100398.13;;;17.05;51.14
54978;BME280;40873;47.522;19.106;2022-09-20T14:29:53;100398.50;;;16.37;51.86
54978;BME280;40873;47.522;19.106;2022-09-20T14:32:28;100402.97;;;16.16;51.95
54978;BME280;40873;47.522;19.106;2022-09-20T14:35:13;100405.44;;;15.97;51.88
54978;BME280;40873;47.522;19.106;2022-09-20T14:38:04;100406.63;;;16.04;52.92
54978;BME280;40873;47.522;19.106;2022-09-20T14:40:41;100414.75;;;15.91;53.39
54978;BME280;40873;47.522;19.106;2022-09-20T14:43:36;100417.47;;;15.69;53.21
54978;BME280;40873;47.522;19.106;2022-09-20T14:46:04;100417.34;;;15.59;54.76
54978;BME280;40873;47.522;19.106;2022-09-20T14:48:36;100414.22;;;15.31;54.64
54978;BME280;40873;47.522;19.106;2022-09-20T14:53:49;100418.81;;;15.18;55.57
54978;BME280;40873;47.522;19.106;2022-09-20T14:56:32;100421.97;;;15.23;56.26
54978;BME280;40873;47.522;19.106;2022-09-20T15:01:39;100412.03;;;15.25;56.08
54978;BME280;40873;47.522;19.106;2022-09-20T15:04:20;100417.22;;;16.68;53.43
54978;BME280;40873;47.522;19.106;2022-09-20T15:06:49;100409.53;;;17.47;50.78
54978;BME280;40873;47.522;19.106;2022-09-20T15:09:17;100411.31;;;17.87;49.27
54978;BME280;40873;47.522;19.106;2022-09-20T15:11:45;100419.81;;;18.21;48.63
54978;BME280;40873;47.522;19.106;2022-09-20T15:14:12;100422.34;;;18.32;48.58
54978;BME280;40873;47.522;19.106;2022-09-20T15:16:39;100425.28;;;17.19;51.52
54978;BME280;40873;47.522;19.106;2022-09-20T15:19:07;100424.25;;;16.48;53.69
54978;BME280;40873;47.522;19.106;2022-09-20T15:21:34;100434.00;;;15.83;55.76
54978;BME280;40873;47.522;19.106;2022-09-20T15:24:02;100437.06;;;15.68;57.48
54978;BME280;40873;47.522;19.106;2022-09-20T15:26:29;100439.59;;;15.24;60.19
54978;BME280;40873;47.522;19.106;2022-09-20T15:28:58;100451.88;;;14.92;61.25
54978;BME280;40873;47.522;19.106;2022-09-20T15:31:25;100444.81;;;14.68;62.83
54978;BME280;40873;47.522;19.106;2022-09-20T15:33:53;100459.03;;;14.43;63.87
54978;BME280;40873;47.522;19.106;2022-09-20T15:36:20;100467.47;;;14.13;62.03
54978;BME280;40873;47.522;19.106;2022-09-20T15:38:47;100445.78;;;13.95;63.43
54978;BME280;40873;47.522;19.106;2022-09-20T15:41:14;100465.13;;;13.85;64.59
54978;BME280;40873;47.522;19.106;2022-09-20T15:43:41;100472.91;;;13.62;64.25
54978;BME280;40873;47.522;19.106;2022-09-20T15:46:18;100468.16;;;13.55;65.85
54978;BME280;40873;47.522;19.106;2022-09-20T15:48:45;100465.84;;;13.50;67.22
54978;BME280;40873;47.522;19.106;2022-09-20T15:51:13;100471.38;;;13.22;69.03
54978;BME280;40873;47.522;19.106;2022-09-20T15:53:41;100469.75;;;13.19;70.13
54978;BME280;40873;47.522;19.106;2022-09-20T15:56:35;100468.69;;;12.96;72.68
54978;BME280;40873;47.522;19.106;2022-09-20T15:59:05;100471.97;;;13.00;73.29
54978;BME280;40873;47.522;19.106;2022-09-20T16:01:40;100474.84;;;13.09;74.25
54978;BME280;40873;47.522;19.106;2022-09-20T16:04:09;100475.44;;;13.00;74.91
54978;BME280;40873;47.522;19.106;2022-09-20T16:06:38;100475.22;;;12.78;76.77
54978;BME280;40873;47.522;19.106;2022-09-20T16:09:06;100472.69;;;12.76;77.45
54978;BME280;40873;47.522;19.106;2022-09-20T16:11:33;100465.28;;;12.81;78.13
54978;BME280;40873;47.522;19.106;2022-09-20T16:14:01;100469.06;;;12.65;79.78
54978;BME280;40873;47.522;19.106;2022-09-20T16:16:29;100474.22;;;12.53;80.56
54978;BME280;40873;47.522;19.106;2022-09-20T16:18:59;100474.22;;;12.53;80.91
54978;BME280;40873;47.522;19.106;2022-09-20T16:21:53;100478.69;;;12.53;81.75
54978;BME280;40873;47.522;19.106;2022-09-20T16:24:32;100481.00;;;12.57;81.42
54978;BME280;40873;47.522;19.106;2022-09-20T16:27:05;100482.06;;;12.55;82.74
54978;BME280;40873;47.522;19.106;2022-09-20T16:29:33;100480.03;;;12.58;83.55
54978;BME280;40873;47.522;19.106;2022-09-20T16:32:01;100480.25;;;12.55;84.47
54978;BME280;40873;47.522;19.106;2022-09-20T16:34:34;100486.41;;;12.56;85.55
54978;BME280;40873;47.522;19.106;2022-09-20T16:37:05;100485.00;;;12.50;85.31
54978;BME280;40873;47.522;19.106;2022-09-20T16:39:33;100481.63;;;12.48;85.81
54978;BME280;40873;47.522;19.106;2022-09-20T16:42:10;100479.25;;;12.31;87.71
54978;BME280;40873;47.522;19.106;2022-09-20T16:44:41;100480.94;;;12.32;88.65
54978;BME280;40873;47.522;19.106;2022-09-20T16:47:13;100482.41;;;12.36;88.71
54978;BME280;40873;47.522;19.106;2022-09-20T16:49:47;100483.44;;;12.21;89.76
54978;BME280;40873;47.522;19.106;2022-09-20T16:52:16;100480.16;;;12.03;89.59
54978;BME280;40873;47.522;19.106;2022-09-20T16:54:44;100480.56;;;11.97;90.25
54978;BME280;40873;47.522;19.106;2022-09-20T16:57:11;100470.00;;;11.97;89.58
54978;BME280;40873;47.522;19.106;2022-09-20T16:59:46;100482.84;;;11.89;89.29
54978;BME280;40873;47.522;19.106;2022-09-20T17:02:16;100481.53;;;11.82;89.60
54978;BME280;40873;47.522;19.106;2022-09-20T17:04:46;100483.53;;;11.64;90.95
54978;BME280;40873;47.522;19.106;2022-09-20T17:07:15;100487.59;;;11.84;89.92
54978;BME280;40873;47.522;19.106;2022-09-20T17:09:43;100491.56;;;11.62;90.55
54978;BME280;40873;47.522;19.106;2022-09-20T17:12:10;100486.91;;;11.66;90.95
54978;BME280;40873;47.522;19.106;2022-09-20T17:14:39;100491.16;;;11.68;93.26
54978;BME280;40873;47.522;19.106;2022-09-20T17:17:06;100491.91;;;11.70;93.24
54978;BME280;40873;47.522;19.106;2022-09-20T17:19:33;100493.72;;;11.70;91.77
54978;BME280;40873;47.522;19.106;2022-09-20T17:22:00;100496.00;;;11.62;91.66
54978;BME280;40873;47.522;19.106;2022-09-20T17:24:27;100500.22;;;11.50;91.19
54978;BME280;40873;47.522;19.106;2022-09-20T17:26:58;100496.38;;;11.41;91.35
54978;BME280;40873;47.522;19.106;2022-09-20T17:29:27;100498.22;;;11.39;91.50
54978;BME280;40873;47.522;19.106;2022-09-20T17:31:53;100498.34;;;11.38;91.82
54978;BME280;40873;47.522;19.106;2022-09-20T17:34:25;100498.06;;;11.28;91.03
54978;BME280;40873;47.522;19.106;2022-09-20T17:36:53;100502.19;;;11.18;91.78
54978;BME280;40873;47.522;19.106;2022-09-20T17:39:21;100503.22;;;11.15;91.98
54978;BME280;40873;47.522;19.106;2022-09-20T17:41:49;100508.44;;;11.31;91.46
54978;BME280;40873;47.522;19.106;2022-09-20T17:44:17;100511.16;;;11.15;92.79
54978;BME280;40873;47.522;19.106;2022-09-20T17:46:46;100513.03;;;11.13;92.11
54978;BME280;40873;47.522;19.106;2022-09-20T17:49:20;100523.97;;;11.07;92.60
54978;BME280;40873;47.522;19.106;2022-09-20T17:51:52;100529.41;;;11.04;93.58
54978;BME280;40873;47.522;19.106;2022-09-20T17:54:20;100531.53;;;11.13;92.44
54978;BME280;40873;47.522;19.106;2022-09-20T17:56:50;100531.09;;;11.05;92.67
54978;BME280;40873;47.522;19.106;2022-09-20T17:59:18;100539.03;;;11.05;92.32
54978;BME280;40873;47.522;19.106;2022-09-20T18:01:48;100533.84;;;11.04;92.59
54978;BME280;40873;47.522;19.106;2022-09-20T18:04:15;100542.84;;;11.15;91.19
54978;BME280;40873;47.522;19.106;2022-09-20T18:06:46;100545.66;;;11.12;93.44
54978;BME280;40873;47.522;19.106;2022-09-20T18:09:15;100540.47;;;11.11;91.05
54978;BME280;40873;47.522;19.106;2022-09-20T18:11:48;100545.53;;;11.00;91.43
54978;BME280;40873;47.522;19.106;2022-09-20T18:14:18;100543.63;;;10.87;92.08
54978;BME280;40873;47.522;19.106;2022-09-20T18:16:46;100558.75;;;10.84;93.10
54978;BME280;40873;47.522;19.106;2022-09-20T18:19:13;100549.59;;;10.75;93.70
54978;BME280;40873;47.522;19.106;2022-09-20T18:21:42;100548.94;;;10.72;93.91
54978;BME280;40873;47.522;19.106;2022-09-20T18:24:10;100559.91;;;10.80;93.64
54978;BME280;40873;47.522;19.106;2022-09-20T18:26:37;100564.91;;;10.84;93.70
54978;BME280;40873;47.522;19.106;2022-09-20T18:29:09;100561.09;;;10.74;94.40
54978;BME280;40873;47.522;19.106;2022-09-20T18:31:45;100561.63;;;10.65;94.66
54978;BME280;40873;47.522;19.106;2022-09-20T18:34:18;100563.25;;;10.67;94.67
54978;BME280;40873;47.522;19.106;2022-09-20T18:36:50;100561.03;;;10.60;95.20
54978;BME280;40873;47.522;19.106;2022-09-20T18:39:19;100562.13;;;10.56;95.44
54978;BME280;40873;47.522;19.106;2022-09-20T18:41:47;100566.13;;;10.63;95.48
54978;BME280;40873;47.522;19.106;2022-09-20T18:44:15;100563.59;;;10.61;96.33
54978;BME280;40873;47.522;19.106;2022-09-20T18:46:44;100564.13;;;10.52;96.83
54978;BME280;40873;47.522;19.106;2022-09-20T18:49:13;100569.13;;;10.41;96.96
54978;BME280;40873;47.522;19.106;2022-09-20T18:51:41;100568.19;;;10.42;97.11
54978;BME280;40873;47.522;19.106;2022-09-20T18:54:10;100574.75;;;10.51;96.47